Time;durP1;ratioP1;P1;durP2;ratioP2;P2;SDS_P1;SDS_P2;PMS_P1;PMS_P2;Temp;Humidity;BMP_temperature;BMP_pressure;BME280_temperature;BME280_humidity;BME280_pressure;Samples;Min_cycle;Max_cycle;Signal;HPM_P1;HPM_P2
2023/12/17 00:00:42;;;;;;;4.32;3.03;;;11.30;99.90;;;;;;6370562;22;20002;-91
2023/12/17 00:03:29;;;;;;;9.93;4.28;;;11.20;99.90;;;;;;6371305;22;20055;-90
2023/12/17 00:05:54;;;;;;;6.07;3.67;;;10.50;99.90;;;;;;6371777;22;20073;-91
2023/12/17 00:08:26;;;;;;;9.32;3.97;;;11.10;99.90;;;;;;6373167;22;20048;-91
2023/12/17 00:10:52;;;;;;;8.60;3.92;;;10.50;99.90;;;;;;6391300;22;19986;-92
2023/12/17 00:13:36;;;;;;;10.02;3.83;;;10.60;99.90;;;;;;6387670;22;20006;-94
2023/12/17 00:16:20;;;;;;;10.57;3.97;;;11.50;99.90;;;;;;6373938;22;19999;-93
2023/12/17 00:18:46;;;;;;;7.40;4.13;;;11.30;99.90;;;;;;6368403;22;20014;-91
2023/12/17 00:21:27;;;;;;;9.73;3.92;;;11.40;99.90;;;;;;6371675;22;20006;-93
2023/12/17 00:23:52;;;;;;;8.90;4.20;;;11.20;99.90;;;;;;6372160;22;20417;-91
2023/12/17 00:26:31;;;;;;;8.43;3.53;;;10.40;99.90;;;;;;6371336;22;20002;-90
2023/12/17 00:28:58;;;;;;;14.57;4.18;;;10.40;99.90;;;;;;6372072;22;20003;-92
2023/12/17 00:31:29;;;;;;;7.22;3.40;;;11.20;99.90;;;;;;6373909;22;20017;-91
2023/12/17 00:33:56;;;;;;;12.30;4.13;;;10.80;99.90;;;;;;6373416;22;20002;-91
2023/12/17 00:36:37;;;;;;;6.43;3.30;;;11.30;99.90;;;;;;6371026;22;20472;-91
2023/12/17 00:39:03;;;;;;;6.53;3.55;;;10.30;99.90;;;;;;6373522;22;20449;-91
2023/12/17 00:41:43;;;;;;;9.15;3.60;;;10.40;99.90;;;;;;6375033;22;20006;-91
2023/12/17 00:44:09;;;;;;;;;;;11.20;99.90;;;;;;6374279;22;20017;-91
2023/12/17 00:46:50;;;;;;;6.45;3.13;;;10.30;99.90;;;;;;6370726;22;19898;-91
2023/12/17 00:49:15;;;;;;;12.30;3.70;;;10.30;99.90;;;;;;6372627;22;20006;-91
2023/12/17 00:51:53;;;;;;;4.72;3.33;;;11.10;99.90;;;;;;6388765;22;20027;-91
2023/12/17 00:54:39;;;;;;;12.30;3.00;;;10.90;99.90;;;;;;6385348;22;20029;-90
2023/12/17 00:57:04;;;;;;;7.20;3.17;;;10.30;99.90;;;;;;6372605;22;20003;-92
2023/12/17 00:59:30;;;;;;;7.22;3.72;;;10.90;99.90;;;;;;6371755;22;20071;-90
2023/12/17 01:01:57;;;;;;;9.50;3.38;;;10.30;99.90;;;;;;6371307;22;20014;-90
2023/12/17 01:04:32;;;;;;;7.10;3.58;;;10.00;99.90;;;;;;6386553;22;20006;-92
2023/12/17 01:06:57;;;;;;;9.18;2.92;;;10.30;99.90;;;;;;6386051;22;20010;-92
2023/12/17 01:09:38;;;;;;;7.38;3.35;;;11.10;99.90;;;;;;6376510;22;20006;-91
2023/12/17 01:12:04;;;;;;;;;;;10.90;99.90;;;;;;6372839;22;20059;-91
2023/12/17 01:14:45;;;;;;;6.32;3.13;;;10.30;99.90;;;;;;6370495;22;20326;-91
2023/12/17 01:17:11;;;;;;;3.78;2.60;;;11.20;99.90;;;;;;6369431;22;20002;-90
2023/12/17 01:19:36;;;;;;;5.13;2.85;;;11.40;99.90;;;;;;6371591;22;20010;-88
2023/12/17 01:22:05;;;;;;;3.10;2.80;;;11.10;99.90;;;;;;6362417;22;20007;-90
2023/12/17 01:24:32;;;;;;;6.13;2.95;;;11.10;99.90;;;;;;6372200;22;20007;-89
2023/12/17 01:27:12;;;;;;;7.15;2.22;;;11.20;99.90;;;;;;6371541;22;20010;-91
2023/12/17 01:29:38;;;;;;;7.75;2.30;;;11.20;99.90;;;;;;6371301;22;20018;-92
2023/12/17 01:32:29;;;;;;;3.85;2.35;;;11.20;99.90;;;;;;6371500;22;20002;-90
2023/12/17 01:35:22;;;;;;;4.80;2.08;;;10.10;99.90;;;;;;6369851;22;20464;-90
2023/12/17 01:38:01;;;;;;;5.80;2.50;;;10.40;99.90;;;;;;6372857;22;20002;-90
2023/12/17 01:40:35;;;;;;;5.60;2.58;;;10.40;99.90;;;;;;6371126;22;20006;-91
2023/12/17 01:43:04;;;;;;;5.32;2.70;;;11.10;99.90;;;;;;6370920;22;20067;-92
2023/12/17 01:45:38;;;;;;;9.30;2.95;;;11.80;99.90;;;;;;6371207;22;19998;-91
2023/12/17 01:48:14;;;;;;;9.63;3.25;;;11.30;99.90;;;;;;6370943;22;20020;-91
2023/12/17 01:50:42;;;;;;;5.88;3.28;;;10.50;99.90;;;;;;6370963;22;20002;-90
2023/12/17 01:53:14;;;;;;;10.73;3.83;;;10.80;99.90;;;;;;6369974;22;20319;-90
2023/12/17 01:55:55;;;;;;;7.53;3.80;;;11.40;99.90;;;;;;6371604;22;20047;-90
2023/12/17 01:58:24;;;;;;;12.02;3.55;;;10.50;99.90;;;;;;6372011;22;19998;-89
2023/12/17 02:01:30;;;;;;;11.02;4.13;;;11.30;99.90;;;;;;6384479;22;20006;-91
2023/12/17 02:04:02;;;;;;;9.82;3.67;;;10.50;99.90;;;;;;6370548;22;20005;-91
2023/12/17 02:06:40;;;;;;;7.75;3.70;;;10.50;99.90;;;;;;6370766;22;20411;-91
2023/12/17 02:09:30;;;;;;;11.35;3.92;;;10.60;99.90;;;;;;6371107;22;20010;-92
2023/12/17 02:12:44;;;;;;;13.55;4.28;;;10.80;99.90;;;;;;6375742;22;20042;-92
2023/12/17 02:15:10;;;;;;;7.63;3.60;;;10.50;99.90;;;;;;6379693;22;20002;-90
2023/12/17 02:18:02;;;;;;;8.90;3.83;;;11.00;99.90;;;;;;6380583;22;20471;-91
2023/12/17 02:20:37;;;;;;;10.85;3.67;;;11.50;99.90;;;;;;6371879;22;20357;-90
2023/12/17 02:23:06;;;;;;;9.85;4.47;;;10.90;99.90;;;;;;6378911;22;20002;-90
2023/12/17 02:25:32;;;;;;;8.73;3.60;;;12.00;99.90;;;;;;6378099;22;20019;-91
2023/12/17 02:28:09;;;;;;;15.10;4.97;;;11.20;99.90;;;;;;6372564;22;20015;-90
2023/12/17 02:30:38;;;;;;;19.50;4.40;;;11.30;99.90;;;;;;6379714;22;20002;-89
2023/12/17 02:33:12;;;;;;;12.63;3.97;;;10.60;99.90;;;;;;6379928;22;20457;-90
2023/12/17 02:35:50;;;;;;;15.60;5.00;;;11.30;99.90;;;;;;6385112;22;20050;-90
2023/12/17 02:38:15;;;;;;;15.18;5.00;;;11.10;99.90;;;;;;6369118;22;20449;-89
2023/12/17 02:40:57;;;;;;;10.10;4.25;;;11.80;99.90;;;;;;6381389;22;19994;-90
2023/12/17 02:43:34;;;;;;;16.17;4.88;;;10.60;99.90;;;;;;6379656;22;20083;-89
2023/12/17 02:46:00;;;;;;;12.10;4.63;;;10.90;99.90;;;;;;6370031;22;20315;-90
2023/12/17 02:48:44;;;;;;;13.77;5.10;;;10.20;99.90;;;;;;6370145;22;20014;-89
2023/12/17 02:51:16;;;;;;;13.65;4.93;;;10.60;99.90;;;;;;6374408;22;20449;-90
2023/12/17 02:53:57;;;;;;;18.65;5.47;;;10.50;99.90;;;;;;6391017;22;20555;-89
2023/12/17 02:56:22;;;;;;;;;;;11.30;99.90;;;;;;6373138;22;20022;-90
2023/12/17 02:59:01;;;;;;;10.30;5.15;;;11.30;99.90;;;;;;6371250;22;19983;-90
2023/12/17 03:01:34;;;;;;;14.55;5.07;;;11.30;99.90;;;;;;6369603;22;20081;-89
2023/12/17 03:04:05;;;;;;;19.27;6.47;;;11.30;99.90;;;;;;6342431;22;20049;-89
2023/12/17 03:06:31;;;;;;;12.00;4.90;;;10.60;99.90;;;;;;6370326;22;20003;-89
2023/12/17 03:08:57;;;;;;;16.38;6.10;;;11.20;99.90;;;;;;6370025;22;20012;-90
2023/12/17 03:11:23;;;;;;;16.30;6.15;;;11.60;99.90;;;;;;6369815;22;19998;-89
2023/12/17 03:13:55;;;;;;;14.82;4.68;;;11.00;99.90;;;;;;6369312;22;20006;-89
2023/12/17 03:16:33;;;;;;;14.02;5.35;;;9.40;99.90;;;;;;6370764;22;19998;-89
2023/12/17 03:19:00;;;;;;;18.00;5.68;;;12.00;99.90;;;;;;6369700;22;20010;-89
2023/12/17 03:21:38;;;;;;;15.90;5.95;;;11.10;99.90;;;;;;6368955;22;20433;-90
2023/12/17 03:24:05;;;;;;;18.02;6.60;;;11.20;99.90;;;;;;6369803;22;20014;-88
2023/12/17 03:26:32;;;;;;;19.33;6.40;;;10.50;99.90;;;;;;6341945;22;19998;-90
2023/12/17 03:28:57;;;;;;;12.23;4.97;;;10.50;99.90;;;;;;6369575;22;20002;-89
2023/12/17 03:31:33;;;;;;;11.77;5.15;;;11.00;99.90;;;;;;6370519;22;20422;-90
2023/12/17 03:34:00;;;;;;;12.30;6.20;;;10.50;99.90;;;;;;6383547;22;19995;-89
2023/12/17 03:36:38;;;;;;;13.73;5.50;;;10.50;99.90;;;;;;6386813;22;20410;-90
2023/12/17 03:39:04;;;;;;;8.98;5.72;;;10.50;99.90;;;;;;6369851;22;20094;-90
2023/12/17 03:41:47;;;;;;;10.95;5.72;;;11.10;99.90;;;;;;6369766;22;20006;-89
2023/12/17 03:44:33;;;;;;;13.65;6.00;;;11.20;99.90;;;;;;6370938;22;20002;-91
2023/12/17 03:47:00;;;;;;;9.60;5.45;;;10.40;99.90;;;;;;6397928;22;20046;-91
2023/12/17 03:49:25;;;;;;;16.92;5.97;;;10.50;99.90;;;;;;6390587;22;20532;-90
2023/12/17 03:51:52;;;;;;;15.43;5.60;;;11.30;99.90;;;;;;6371625;22;20037;-91
2023/12/17 03:54:17;;;;;;;11.05;5.80;;;11.50;99.90;;;;;;6369492;22;19998;-90
2023/12/17 03:56:55;;;;;;;15.80;5.63;;;11.50;99.90;;;;;;6369957;22;20021;-90
2023/12/17 03:59:22;;;;;;;7.00;4.72;;;11.30;99.90;;;;;;6307507;22;20015;-91
2023/12/17 04:01:50;;;;;;;11.38;6.05;;;11.20;99.90;;;;;;6308209;22;20011;-90
2023/12/17 04:04:33;;;;;;;12.93;5.70;;;10.60;99.90;;;;;;6305752;22;20235;-92
2023/12/17 04:06:59;;;;;;;9.68;6.50;;;11.80;99.90;;;;;;6307299;22;20038;-90
2023/12/17 04:09:36;;;;;;;13.07;6.75;;;10.40;99.90;;;;;;6307166;22;19999;-91
2023/12/17 04:12:24;;;;;;;12.10;5.72;;;11.80;99.90;;;;;;6309930;22;20003;-91
2023/12/17 04:15:11;;;;;;;20.30;8.00;;;11.20;99.90;;;;;;6309977;22;20087;-91
2023/12/17 04:17:55;;;;;;;18.42;6.75;;;10.40;99.90;;;;;;6309857;22;19999;-91
2023/12/17 04:20:21;;;;;;;13.77;6.97;;;11.20;99.90;;;;;;6309941;22;19999;-91
2023/12/17 04:23:07;;;;;;;14.60;6.03;;;11.10;99.90;;;;;;6310193;22;20438;-92
2023/12/17 04:25:34;;;;;;;13.05;6.22;;;10.30;99.90;;;;;;6308491;22;20007;-92
2023/12/17 04:28:15;;;;;;;16.85;6.43;;;10.40;99.90;;;;;;6309379;22;20011;-91
2023/12/17 04:30:41;;;;;;;13.77;5.95;;;11.20;99.90;;;;;;6325875;22;20014;-91
2023/12/17 04:33:18;;;;;;;12.05;6.43;;;10.30;99.90;;;;;;6320463;22;20007;-91
2023/12/17 04:35:44;;;;;;;20.85;6.22;;;9.70;99.90;;;;;;6309541;22;20499;-91
2023/12/17 04:38:20;;;;;;;13.73;5.82;;;10.80;99.90;;;;;;6325782;22;20003;-92
2023/12/17 04:40:46;;;;;;;13.32;5.28;;;10.60;99.90;;;;;;6324934;22;20052;-91
2023/12/17 04:43:28;;;;;;;12.25;5.75;;;10.50;99.90;;;;;;6316007;22;20049;-90
2023/12/17 04:46:10;;;;;;;15.10;5.72;;;11.30;99.90;;;;;;6307881;22;20006;-91
2023/12/17 04:48:35;;;;;;;14.50;6.50;;;10.50;99.90;;;;;;6281805;22;20014;-92
2023/12/17 04:51:17;;;;;;;19.35;6.57;;;10.80;99.90;;;;;;6310382;22;20003;-91
2023/12/17 04:53:43;;;;;;;24.23;6.97;;;11.30;99.90;;;;;;6308416;22;20063;-91
2023/12/17 04:56:23;;;;;;;18.55;7.43;;;11.10;99.90;;;;;;6330259;22;20007;-88
2023/12/17 04:58:49;;;;;;;20.50;6.93;;;11.10;99.90;;;;;;6362883;22;20014;-91
2023/12/17 05:01:18;;;;;;;17.70;7.70;;;11.50;99.90;;;;;;6372955;22;20042;-90
2023/12/17 05:03:44;;;;;;;15.00;8.80;;;10.40;99.90;;;;;;6371835;22;20426;-91
2023/12/17 05:06:18;;;;;;;16.52;7.32;;;11.20;99.90;;;;;;6370579;22;20228;-89
2023/12/17 05:08:43;;;;;;;16.42;7.22;;;9.80;99.90;;;;;;6370783;22;20010;-90
2023/12/17 05:11:18;;;;;;;17.67;8.30;;;11.30;99.90;;;;;;6371213;22;20005;-91
2023/12/17 05:13:44;;;;;;;16.73;8.45;;;10.40;99.90;;;;;;6373189;22;20010;-90
2023/12/17 05:16:21;;;;;;;16.90;7.78;;;10.60;99.90;;;;;;6376369;22;20306;-89
2023/12/17 05:18:48;;;;;;;18.17;8.40;;;10.30;99.90;;;;;;6370966;22;20010;-91
2023/12/17 05:21:19;;;;;;;19.23;8.20;;;11.90;99.90;;;;;;6371631;22;20089;-90
2023/12/17 05:23:44;;;;;;;20.10;9.48;;;10.60;99.90;;;;;;6372462;22;20002;-90
2023/12/17 05:26:25;;;;;;;15.38;9.82;;;11.50;99.90;;;;;;6372197;22;20002;-90
2023/12/17 05:28:51;;;;;;;;;;;11.70;99.90;;;;;;6373291;22;20093;-90
2023/12/17 05:31:24;;;;;;;17.77;8.80;;;10.30;99.90;;;;;;6375100;22;20314;-89
2023/12/17 05:33:50;;;;;;;32.28;11.05;;;10.50;99.90;;;;;;6381854;22;19994;-90
2023/12/17 05:36:35;;;;;;;26.92;10.52;;;10.90;99.90;;;;;;6395827;22;20022;-89
2023/12/17 05:39:01;;;;;;;16.25;10.30;;;10.70;99.90;;;;;;6390454;22;20022;-90
2023/12/17 05:41:45;;;;;;;19.80;10.77;;;11.50;99.90;;;;;;6387249;22;20095;-91
2023/12/17 05:44:11;;;;;;;17.67;10.45;;;11.10;99.90;;;;;;6384350;22;20005;-90
2023/12/17 05:46:54;;;;;;;24.58;11.68;;;10.40;99.90;;;;;;6372433;22;20002;-90
2023/12/17 05:49:39;;;;;;;27.83;12.57;;;10.70;99.90;;;;;;6371657;22;20323;-90
2023/12/17 05:52:05;;;;;;;20.92;12.02;;;10.20;99.90;;;;;;6371644;22;20422;-90
2023/12/17 05:54:38;;;;;;;23.52;14.52;;;11.10;99.90;;;;;;6371592;22;20323;-92
2023/12/17 05:57:04;;;;;;;27.65;15.82;;;10.20;99.90;;;;;;6371913;22;20010;-91
2023/12/17 05:59:41;;;;;;;30.33;15.95;;;10.50;99.90;;;;;;6371229;22;20089;-90
2023/12/17 06:02:07;;;;;;;20.13;14.30;;;10.90;99.90;;;;;;6371716;22;20310;-92
2023/12/17 06:04:33;;;;;;;30.25;16.50;;;10.20;99.90;;;;;;6372206;22;20002;-91
2023/12/17 06:07:13;;;;;;;32.50;17.33;;;9.80;99.90;;;;;;6387270;22;20014;-90
2023/12/17 06:09:40;;;;;;;33.53;17.90;;;11.10;99.90;;;;;;6383146;22;20002;-90
2023/12/17 06:12:17;;;;;;;33.03;18.65;;;11.00;99.90;;;;;;6372053;22;20006;-91
2023/12/17 06:14:43;;;;;;;35.42;20.33;;;10.90;99.90;;;;;;6377924;22;20050;-91
2023/12/17 06:17:20;;;;;;;37.05;20.23;;;10.90;99.90;;;;;;6390233;22;19998;-91
2023/12/17 06:19:46;;;;;;;31.33;20.77;;;10.90;99.90;;;;;;6383387;22;19998;-91
2023/12/17 06:22:15;;;;;;;40.03;20.77;;;11.00;99.90;;;;;;6371126;22;20018;-87
2023/12/17 06:24:50;;;;;;;33.08;20.25;;;10.20;99.90;;;;;;6369995;22;19994;-89
2023/12/17 06:27:17;;;;;;;35.15;18.83;;;11.10;99.90;;;;;;6371013;22;20010;-90
2023/12/17 06:30:01;;;;;;;39.50;19.88;;;10.30;99.90;;;;;;6394398;22;20010;-92
2023/12/17 06:32:29;;;;;;;43.03;20.75;;;10.90;99.90;;;;;;6386401;22;20027;-92
2023/12/17 06:35:06;;;;;;;28.80;17.42;;;10.10;99.90;;;;;;6369988;22;20071;-92
2023/12/17 06:37:32;;;;;;;27.52;17.63;;;10.20;99.90;;;;;;6370129;22;20010;-92
2023/12/17 06:39:57;;;;;;;32.72;17.13;;;10.70;99.90;;;;;;6371873;22;20054;-92
2023/12/17 06:42:23;;;;;;;28.60;16.50;;;11.10;99.90;;;;;;6370788;22;20009;-91
2023/12/17 06:45:02;;;;;;;26.05;16.02;;;11.40;99.90;;;;;;6370858;22;20022;-91
2023/12/17 06:47:28;;;;;;;22.40;13.88;;;10.10;99.90;;;;;;6373544;22;20003;-92
2023/12/17 06:49:54;;;;;;;26.23;13.65;;;11.10;99.90;;;;;;6377079;22;20066;-93
2023/12/17 06:52:35;;;;;;;18.33;12.70;;;10.70;99.90;;;;;;6376283;22;20044;-92
2023/12/17 06:55:15;;;;;;;21.48;12.63;;;10.60;99.90;;;;;;6378293;22;20002;-92
2023/12/17 06:57:47;;;;;;;;;;;10.50;99.90;;;;;;6374752;22;20025;-93
2023/12/17 07:00:27;;;;;;;23.48;12.90;;;10.70;99.90;;;;;;6360899;22;19898;-93
2023/12/17 07:02:53;;;;;;;;;;;11.10;99.90;;;;;;6375916;22;20011;-92
2023/12/17 07:05:42;;;;;;;17.13;11.13;;;9.70;99.90;;;;;;6375025;22;19902;-92
2023/12/17 07:08:07;;;;;;;23.67;12.48;;;9.80;99.90;;;;;;6375476;22;20063;-92
2023/12/17 07:10:45;;;;;;;15.43;12.00;;;9.80;99.90;;;;;;6372670;22;20361;-91
2023/12/17 07:13:11;;;;;;;20.10;12.73;;;10.60;99.90;;;;;;6370426;22;20010;-92
2023/12/17 07:15:58;;;;;;;25.00;12.88;;;11.00;99.90;;;;;;6371564;22;20299;-93
2023/12/17 07:18:40;;;;;;;27.00;12.10;;;10.00;99.90;;;;;;6371523;22;20014;-92
2023/12/17 07:21:18;;;;;;;24.13;12.85;;;10.70;99.90;;;;;;6369906;22;19998;-91
2023/12/17 07:23:44;;;;;;;21.85;12.15;;;10.80;99.90;;;;;;6395184;22;19998;-92
2023/12/17 07:26:15;;;;;;;19.35;12.38;;;10.60;99.90;;;;;;6391708;22;19991;-90
2023/12/17 07:28:42;;;;;;;27.50;13.60;;;10.70;99.90;;;;;;6372595;22;20090;-92
2023/12/17 07:31:07;;;;;;;22.77;11.10;;;10.70;99.90;;;;;;6376114;22;19998;-92
2023/12/17 07:33:33;;;;;;;17.00;12.05;;;10.80;99.90;;;;;;6383533;22;20008;-93
2023/12/17 07:36:14;;;;;;;22.75;11.68;;;10.40;99.90;;;;;;6344157;22;20431;-94
2023/12/17 07:38:40;;;;;;;17.10;9.93;;;10.40;99.90;;;;;;6342552;22;20014;-93
2023/12/17 07:41:06;;;;;;;21.45;11.75;;;10.80;99.90;;;;;;6353601;22;20086;-93
2023/12/17 07:43:52;;;;;;;22.65;10.57;;;10.30;99.90;;;;;;6337477;22;20006;-92
2023/12/17 07:46:18;;;;;;;13.95;9.80;;;9.90;99.90;;;;;;6340681;22;20073;-94
2023/12/17 07:48:45;;;;;;;24.67;11.50;;;11.10;99.90;;;;;;6338573;22;20041;-92
2023/12/17 07:51:29;;;;;;;21.58;11.38;;;10.80;99.90;;;;;;6340193;22;20067;-93
2023/12/17 07:54:18;;;;;;;15.60;11.32;;;9.90;99.90;;;;;;6340370;22;20125;-92
2023/12/17 07:57:20;;;;;;;17.85;11.25;;;9.60;99.90;;;;;;6341146;22;20026;-94
2023/12/17 08:00:11;;;;;;;17.85;12.35;;;9.80;99.90;;;;;;6341143;22;20006;-91
2023/12/17 08:03:04;;;;;;;19.67;11.00;;;9.10;99.90;;;;;;6336809;22;20022;-92
2023/12/17 08:05:48;;;;;;;18.05;11.57;;;9.60;99.90;;;;;;6330626;22;20018;-92
2023/12/17 08:08:37;;;;;;;20.48;13.73;;;10.50;99.90;;;;;;6336951;22;20018;-92
2023/12/17 08:11:36;;;;;;;;;;;;;;;;;;;;;
2023/12/17 08:14:36;;;;;;;25.77;15.30;;;9.70;99.90;;;;;;6258261;22;20081;-92
2023/12/17 08:21:06;;;;;;;29.50;16.40;;;9.00;99.90;;;;;;6310704;22;20017;-92
2023/12/17 08:23:56;;;;;;;27.13;16.38;;;9.60;99.90;;;;;;6352714;22;20024;-91
2023/12/17 08:26:27;;;;;;;27.48;17.98;;;9.50;99.90;;;;;;6346406;22;20007;-92
2023/12/17 08:29:04;;;;;;;27.50;18.23;;;9.60;99.90;;;;;;6336024;22;20079;-92
2023/12/17 08:31:50;;;;;;;27.88;18.48;;;9.50;99.90;;;;;;6335296;22;20034;-93
2023/12/17 08:34:15;;;;;;;34.95;21.83;;;9.60;99.90;;;;;;6336189;22;20007;-92
2023/12/17 08:37:06;;;;;;;34.83;21.45;;;9.60;99.90;;;;;;6362323;22;20135;-92
2023/12/17 08:39:57;;;;;;;;;;;9.70;99.90;;;;;;6367699;22;20438;-92
2023/12/17 08:42:25;;;;;;;36.47;20.35;;;9.60;99.90;;;;;;6378872;22;19909;-91
2023/12/17 08:44:54;;;;;;;34.83;21.00;;;10.00;99.90;;;;;;6385720;22;19998;-91
2023/12/17 08:47:24;;;;;;;43.47;23.58;;;9.80;99.90;;;;;;6377267;22;20011;-92
2023/12/17 08:50:03;;;;;;;45.55;23.52;;;9.50;99.90;;;;;;6391005;22;20007;-90
2023/12/17 08:52:48;;;;;;;44.40;26.48;;;9.60;99.90;;;;;;6374807;22;20075;-90
2023/12/17 08:55:25;;;;;;;46.95;25.88;;;9.60;99.90;;;;;;6368092;22;20090;-91
2023/12/17 08:58:00;;;;;;;44.85;24.65;;;9.50;99.90;;;;;;6366968;22;20006;-91
2023/12/17 09:00:26;;;;;;;48.50;26.60;;;10.10;99.90;;;;;;6391298;22;20012;-90
2023/12/17 09:03:08;;;;;;;50.00;27.58;;;10.30;99.90;;;;;;6376269;22;20085;-90
2023/12/17 09:05:47;;;;;;;51.30;28.00;;;10.30;99.90;;;;;;6365936;22;20426;-89
2023/12/17 09:08:14;;;;;;;50.80;27.88;;;10.30;99.90;;;;;;6363683;22;20344;-91
2023/12/17 09:11:04;;;;;;;52.25;27.23;;;10.20;99.90;;;;;;6390197;22;20006;-91
2023/12/17 09:13:29;;;;;;;54.55;28.35;;;9.50;99.90;;;;;;6376576;22;20037;-92
2023/12/17 09:16:05;;;;;;;52.22;29.35;;;10.40;99.90;;;;;;6366159;22;19998;-92
2023/12/17 09:18:31;;;;;;;49.45;28.27;;;9.70;99.90;;;;;;6367924;22;19998;-91
2023/12/17 09:20:57;;;;;;;50.00;28.83;;;9.90;99.90;;;;;;6366507;22;20010;-89
2023/12/17 09:23:31;;;;;;;54.78;31.27;;;9.50;99.90;;;;;;6367711;22;20002;-92
2023/12/17 09:25:57;;;;;;;52.33;28.92;;;10.40;99.90;;;;;;6369197;22;20430;-87
2023/12/17 09:28:23;;;;;;;59.30;30.60;;;10.20;99.90;;;;;;6366357;22;20010;-91
2023/12/17 09:30:50;;;;;;;49.83;25.98;;;10.30;99.90;;;;;;6368085;22;20025;-91
2023/12/17 09:33:16;;;;;;;50.80;28.15;;;10.10;99.90;;;;;;6368585;22;20033;-90
2023/12/17 09:35:52;;;;;;;54.38;28.08;;;9.50;99.90;;;;;;6372731;22;20039;-91
2023/12/17 09:38:18;;;;;;;53.58;28.50;;;9.50;99.90;;;;;;6368029;22;20441;-90
2023/12/17 09:40:46;;;;;;;55.28;28.35;;;9.50;99.90;;;;;;6368356;22;20002;-88
2023/12/17 09:43:13;;;;;;;52.70;27.83;;;10.90;99.90;;;;;;6368122;22;20307;-89
2023/12/17 09:45:41;;;;;;;56.85;30.25;;;9.50;99.90;;;;;;6367251;22;20521;-89
2023/12/17 09:48:19;;;;;;;52.53;29.27;;;10.70;99.90;;;;;;6368631;22;20095;-89
2023/12/17 09:50:45;;;;;;;50.65;29.23;;;10.10;99.90;;;;;;6373899;22;20002;-89
2023/12/17 09:53:29;;;;;;;52.55;29.30;;;10.00;99.90;;;;;;6367218;22;20021;-89
2023/12/17 09:55:55;;;;;;;55.17;28.35;;;10.20;99.90;;;;;;6366546;22;20033;-89
2023/12/17 09:58:20;;;;;;;50.13;28.40;;;10.20;99.90;;;;;;6367527;22;20002;-88
2023/12/17 10:00:55;;;;;;;51.05;29.45;;;9.30;99.90;;;;;;6369117;22;20002;-89
2023/12/17 10:03:21;;;;;;;51.30;28.42;;;10.20;99.90;;;;;;6379666;22;20010;-90
2023/12/17 10:05:51;;;;;;;51.15;28.75;;;9.20;99.90;;;;;;6377786;22;20414;-90
2023/12/17 10:08:18;;;;;;;55.40;30.38;;;9.20;99.90;;;;;;6370587;22;20414;-91
2023/12/17 10:10:45;;;;;;;51.95;29.33;;;9.30;99.90;;;;;;6368402;22;20021;-91
2023/12/17 10:13:21;;;;;;;51.08;30.02;;;9.80;99.90;;;;;;6368994;22;20006;-86
2023/12/17 10:15:51;;;;;;;46.80;27.70;;;9.40;99.90;;;;;;6365269;22;20078;-89
2023/12/17 10:18:17;;;;;;;45.30;28.58;;;9.30;99.90;;;;;;6369285;22;20002;-88
2023/12/17 10:20:47;;;;;;;54.00;28.70;;;9.30;99.90;;;;;;6386460;22;19991;-89
2023/12/17 10:23:13;;;;;;;42.63;25.38;;;9.30;99.90;;;;;;6385792;22;20009;-92
2023/12/17 10:25:40;;;;;;;39.28;26.58;;;9.30;99.90;;;;;;6368206;22;19998;-89
2023/12/17 10:28:07;;;;;;;38.33;25.25;;;9.30;99.90;;;;;;6368094;22;20049;-88
2023/12/17 10:30:34;;;;;;;43.33;26.20;;;9.50;99.90;;;;;;6366037;22;20002;-88
2023/12/17 10:33:01;;;;;;;41.85;25.63;;;9.50;99.90;;;;;;6366399;22;20070;-87
2023/12/17 10:35:29;;;;;;;40.90;25.98;;;9.30;99.90;;;;;;6367070;22;20398;-87
2023/12/17 10:38:05;;;;;;;38.60;24.20;;;9.30;99.90;;;;;;6367567;22;20003;-88
2023/12/17 10:40:36;;;;;;;41.47;24.83;;;9.30;99.90;;;;;;6361518;22;20410;-88
2023/12/17 10:43:04;;;;;;;36.90;22.33;;;9.30;99.90;;;;;;6368417;22;20002;-89
2023/12/17 10:45:31;;;;;;;43.45;23.30;;;9.30;99.90;;;;;;6365660;22;20007;-86
2023/12/17 10:47:58;;;;;;;40.08;23.42;;;9.20;99.90;;;;;;6368512;22;20338;-90
2023/12/17 10:50:26;;;;;;;39.15;22.33;;;9.20;99.90;;;;;;6368617;22;20143;-89
2023/12/17 10:52:53;;;;;;;45.92;24.17;;;9.20;99.90;;;;;;6368868;22;20607;-91
2023/12/17 10:55:19;;;;;;;44.70;22.52;;;9.20;99.90;;;;;;6372214;22;20005;-90
2023/12/17 10:58:01;;;;;;;38.10;20.88;;;9.20;99.90;;;;;;6391805;22;20326;-91
2023/12/17 11:00:31;;;;;;;46.55;21.33;;;9.40;99.90;;;;;;6375657;22;20340;-92
2023/12/17 11:03:05;;;;;;;41.20;19.30;;;10.00;99.90;;;;;;6368147;22;20010;-90
2023/12/17 11:05:33;;;;;;;51.03;21.73;;;9.30;99.90;;;;;;6367850;22;20063;-89
2023/12/17 11:07:59;;;;;;;40.17;20.05;;;9.30;99.90;;;;;;6368332;22;20426;-90
2023/12/17 11:10:26;;;;;;;47.63;20.30;;;10.70;99.90;;;;;;6368145;22;20014;-91
2023/12/17 11:12:53;;;;;;;45.17;20.67;;;9.30;99.90;;;;;;6367869;22;20077;-90
2023/12/17 11:15:22;;;;;;;49.60;22.85;;;9.20;99.90;;;;;;6368470;22;20070;-88
2023/12/17 11:17:54;;;;;;;48.50;21.98;;;9.30;99.90;;;;;;6373463;22;20006;-90
2023/12/17 11:20:21;;;;;;;47.38;21.27;;;9.50;99.90;;;;;;6366557;22;20104;-91
2023/12/17 11:22:50;;;;;;;40.90;19.95;;;9.30;99.90;;;;;;6366421;22;20339;-86
2023/12/17 11:25:15;;;;;;;45.10;20.48;;;9.30;99.90;;;;;;6367758;22;20006;-91
2023/12/17 11:27:42;;;;;;;39.42;19.80;;;9.30;99.90;;;;;;6369643;22;20326;-90
2023/12/17 11:30:30;;;;;;;41.63;19.30;;;9.40;99.90;;;;;;6370753;22;19991;-88
2023/12/17 11:32:58;;;;;;;35.47;17.48;;;9.40;99.90;;;;;;6340453;22;20028;-89
2023/12/17 11:35:24;;;;;;;30.73;16.05;;;9.40;99.90;;;;;;6368667;22;20381;-88
2023/12/17 11:37:50;;;;;;;33.30;15.25;;;9.50;99.90;;;;;;6370457;22;20005;-90
2023/12/17 11:40:16;;;;;;;29.20;15.10;;;9.50;99.90;;;;;;6368805;22;20018;-88
2023/12/17 11:42:57;;;;;;;31.08;15.30;;;9.50;99.90;;;;;;6387915;22;20002;-89
2023/12/17 11:45:44;;;;;;;35.85;14.45;;;9.50;99.90;;;;;;6378266;22;20064;-89
2023/12/17 11:48:14;;;;;;;33.83;14.20;;;9.60;99.90;;;;;;6373777;22;20045;-90
2023/12/17 11:50:51;;;;;;;33.28;13.05;;;10.30;99.90;;;;;;6390358;22;19998;-89
2023/12/17 11:53:19;;;;;;;29.80;11.50;;;9.60;99.90;;;;;;6376471;22;20013;-90
2023/12/17 11:56:03;;;;;;;31.38;12.20;;;9.60;99.90;;;;;;6364958;22;20391;-92
2023/12/17 11:58:30;;;;;;;24.77;10.80;;;9.70;99.90;;;;;;6370008;22;20021;-90
2023/12/17 12:01:08;;;;;;;17.48;9.70;;;10.10;99.90;;;;;;6369192;22;20325;-91
2023/12/17 12:03:34;;;;;;;30.15;10.38;;;9.70;99.90;;;;;;6366678;22;20006;-86
2023/12/17 12:06:09;;;;;;;29.85;11.05;;;10.10;99.90;;;;;;6369735;22;20072;-87
2023/12/17 12:08:45;;;;;;;27.90;9.70;;;9.70;99.90;;;;;;6366084;22;20021;-85
2023/12/17 12:11:13;;;;;;;26.15;9.73;;;9.80;99.90;;;;;;6365872;22;20026;-86
2023/12/17 12:13:45;;;;;;;41.45;12.30;;;9.80;99.90;;;;;;6364164;22;20077;-86
2023/12/17 12:16:11;;;;;;;19.98;8.85;;;9.90;99.90;;;;;;6364641;22;20005;-86
2023/12/17 12:18:37;;;;;;;26.58;9.30;;;9.90;99.90;;;;;;6369035;22;20465;-86
2023/12/17 12:21:19;;;;;;;19.40;9.00;;;9.90;99.90;;;;;;6364285;22;20102;-86
2023/12/17 12:23:55;;;;;;;25.17;9.60;;;9.90;99.90;;;;;;6362076;22;20453;-86
2023/12/17 12:26:24;;;;;;;23.83;8.77;;;10.00;99.90;;;;;;6363786;22;20006;-87
2023/12/17 12:29:00;;;;;;;22.63;9.50;;;10.00;99.90;;;;;;6367502;22;20034;-87
2023/12/17 12:31:31;;;;;;;30.80;9.13;;;10.10;99.90;;;;;;6368646;22;20006;-89
2023/12/17 12:33:59;;;;;;;20.25;7.95;;;10.10;99.90;;;;;;6372753;22;20037;-86
2023/12/17 12:36:25;;;;;;;22.08;8.50;;;10.10;99.90;;;;;;6372814;22;20417;-90
2023/12/17 12:39:04;;;;;;;26.05;7.95;;;10.10;99.90;;;;;;6374589;22;20022;-90
2023/12/17 12:41:32;;;;;;;29.08;8.02;;;10.20;99.90;;;;;;6375714;22;20002;-88
2023/12/17 12:43:59;;;;;;;28.42;8.50;;;10.40;99.90;;;;;;6371538;22;20013;-89
2023/12/17 12:46:24;;;;;;;20.67;6.93;;;10.30;99.90;;;;;;6374904;22;20014;-88
2023/12/17 12:48:55;;;;;;;18.13;7.82;;;10.30;99.90;;;;;;6371717;22;20007;-89
2023/12/17 12:51:21;;;;;;;20.35;8.27;;;10.30;99.90;;;;;;6370881;22;20002;-88
2023/12/17 12:53:46;;;;;;;20.92;7.95;;;10.40;99.90;;;;;;6370181;22;20482;-89
2023/12/17 12:56:13;;;;;;;21.80;7.90;;;10.50;99.90;;;;;;6371325;22;20347;-90
2023/12/17 12:58:38;;;;;;;27.75;7.95;;;10.40;99.90;;;;;;6371171;22;20005;-89
2023/12/17 13:01:04;;;;;;;13.63;6.32;;;10.70;99.90;;;;;;6368190;22;20310;-89
2023/12/17 13:03:30;;;;;;;21.08;6.68;;;10.40;99.90;;;;;;6370841;22;20006;-90
2023/12/17 13:05:55;;;;;;;20.33;6.70;;;10.40;99.90;;;;;;6380399;22;20058;-88
2023/12/17 13:08:21;;;;;;;19.77;6.75;;;10.40;99.90;;;;;;6383967;22;20006;-89
2023/12/17 13:10:47;;;;;;;17.33;6.13;;;10.40;99.90;;;;;;6368722;22;20089;-88
2023/12/17 13:13:12;;;;;;;21.70;6.45;;;10.40;99.90;;;;;;6365738;22;20322;-89